createdAt,value
2018-03-29T00:02:02.004Z,98777.64
2018-03-29T00:05:03.263Z,98786.72
2018-03-29T00:08:04.534Z,98790.58
2018-03-29T00:11:05.755Z,98788.39
2018-03-29T00:14:06.980Z,98791.84
2018-03-29T00:17:08.948Z,98783.02
2018-03-29T00:20:10.934Z,98786.66
2018-03-29T00:23:12.895Z,98792.06
2018-03-29T00:26:14.142Z,98793.20
2018-03-29T00:29:15.444Z,98790.63
2018-03-29T00:32:16.663Z,98792.17
2018-03-29T00:35:17.895Z,98777.72
2018-03-29T00:38:19.142Z,98795.11
2018-03-29T00:41:20.420Z,98796.55
2018-03-29T00:44:21.661Z,98794.34
2018-03-29T00:47:23.650Z,98796.39
2018-03-29T00:50:24.912Z,98804.80
2018-03-29T00:53:43.497Z,98802.24
2018-03-29T00:56:44.787Z,98806.00
2018-03-29T00:59:46.043Z,98806.11
2018-03-29T01:02:47.271Z,98827.09
2018-03-29T01:05:48.505Z,98820.06
2018-03-29T01:08:49.787Z,98829.61
2018-03-29T01:11:51.797Z,98835.00
2018-03-29T01:14:53.101Z,98821.31
2018-03-29T01:17:54.373Z,98828.13
2018-03-29T01:20:55.618Z,98837.14
2018-03-29T01:23:56.960Z,98847.47
2018-03-29T01:26:58.194Z,98851.20
2018-03-29T01:29:59.431Z,98845.53
2018-03-29T01:33:01.402Z,98853.13
2018-03-29T01:36:02.700Z,98858.03
2018-03-29T01:39:03.988Z,98860.06
2018-03-29T01:42:05.233Z,98849.84
2018-03-29T01:45:06.526Z,98867.17
2018-03-29T01:48:14.758Z,98861.45
2018-03-29T01:51:15.990Z,98866.13
2018-03-29T01:54:17.283Z,98871.84
2018-03-29T01:57:18.539Z,98884.50
2018-03-29T02:00:19.794Z,98870.93
2018-03-29T02:03:21.027Z,98888.70
2018-03-29T02:06:23.010Z,98877.08
2018-03-29T02:09:25.493Z,98882.91
2018-03-29T02:12:26.753Z,98893.11
2018-03-29T02:15:28.800Z,98889.78
2018-03-29T02:18:30.072Z,98889.28
2018-03-29T02:21:31.314Z,98895.59
2018-03-29T02:24:32.531Z,98898.74
2018-03-29T02:27:34.488Z,98900.91
2018-03-29T02:30:35.736Z,98897.21
2018-03-29T02:33:36.990Z,98897.77
2018-03-29T02:36:38.222Z,98897.66
2018-03-29T02:39:39.460Z,98906.73
2018-03-29T02:42:41.439Z,98906.50
2018-03-29T02:45:43.421Z,98907.50
2018-03-29T02:48:45.433Z,98906.48
2018-03-29T02:51:46.685Z,98913.14
2018-03-29T02:54:47.903Z,98916.80
2018-03-29T02:57:49.924Z,98923.03
2018-03-29T03:00:51.197Z,98922.59
2018-03-29T03:03:52.469Z,98921.22
2018-03-29T03:06:53.742Z,98934.52
2018-03-29T03:09:55.014Z,98928.95
2018-03-29T03:12:56.269Z,98937.64
2018-03-29T03:15:57.495Z,98938.30
2018-03-29T03:18:58.738Z,98931.73
2018-03-29T03:22:00.746Z,98937.59
2018-03-29T03:25:02.013Z,98942.02
2018-03-29T03:28:03.305Z,98950.52
2018-03-29T03:31:04.563Z,98950.31
2018-03-29T03:34:05.804Z,98949.65
2018-03-29T03:37:07.110Z,98955.83
2018-03-29T03:40:08.378Z,98962.98
2018-03-29T03:43:09.622Z,98966.89
2018-03-29T03:46:10.876Z,98956.54
2018-03-29T03:49:12.106Z,98964.39
2018-03-29T03:52:13.354Z,98961.84
2018-03-29T03:55:15.323Z,98970.82
2018-03-29T03:58:16.576Z,98958.42
2018-03-29T04:01:17.807Z,98956.94
2018-03-29T04:04:19.062Z,98967.98
2018-03-29T04:07:20.320Z,98977.91
2018-03-29T04:10:21.574Z,98960.49
2018-03-29T04:13:22.787Z,98946.52
2018-03-29T04:16:24.019Z,98939.55
2018-03-29T04:19:25.235Z,98941.61
2018-03-29T04:22:27.218Z,98941.05
2018-03-29T04:25:29.194Z,98942.55
2018-03-29T04:28:31.182Z,98950.86
2018-03-29T04:31:33.151Z,98953.48
2018-03-29T04:34:35.149Z,98956.92
2018-03-29T04:37:36.385Z,98957.52
2018-03-29T04:40:37.750Z,98961.47
2018-03-29T04:43:39.015Z,98965.00
2018-03-29T04:46:40.303Z,98964.22
2018-03-29T04:49:42.273Z,98965.50
2018-03-29T04:52:44.247Z,98959.98
2018-03-29T04:55:46.211Z,98969.33
2018-03-29T04:58:47.452Z,98975.21
2018-03-29T05:01:48.701Z,98979.20
2018-03-29T05:04:49.917Z,98992.87
2018-03-29T05:07:51.891Z,98988.38
2018-03-29T05:10:53.126Z,98984.82
2018-03-29T05:13:54.379Z,98984.45
2018-03-29T05:16:55.606Z,98985.38
2018-03-29T05:19:56.835Z,98986.31
2018-03-29T05:22:58.063Z,98990.72
2018-03-29T05:26:05.246Z,98989.95
2018-03-29T05:29:06.451Z,98997.06
2018-03-29T05:32:07.706Z,98997.88
2018-03-29T05:35:09.683Z,98998.62
2018-03-29T05:38:10.937Z,98990.37
2018-03-29T05:41:12.174Z,98990.52
2018-03-29T05:44:13.393Z,98993.11
2018-03-29T05:47:14.622Z,98990.96
2018-03-29T05:50:15.901Z,98988.22
2018-03-29T05:53:17.135Z,98990.36
2018-03-29T05:56:18.357Z,98988.74
2018-03-29T05:59:20.316Z,98996.10
2018-03-29T06:02:21.664Z,98989.67
2018-03-29T06:05:22.919Z,98996.28
2018-03-29T06:08:24.181Z,98999.98
2018-03-29T06:11:26.175Z,98998.71
2018-03-29T06:14:33.485Z,99001.91
2018-03-29T06:17:34.731Z,98997.17
2018-03-29T06:20:36.005Z,98992.09
2018-03-29T06:23:37.244Z,98999.80
2018-03-29T06:26:38.494Z,99013.96
2018-03-29T06:29:39.704Z,99003.91
2018-03-29T06:32:41.020Z,99004.25
2018-03-29T06:35:42.236Z,99009.70
2018-03-29T06:38:43.472Z,99012.16
2018-03-29T06:41:44.722Z,99006.80
2018-03-29T06:44:45.974Z,99010.80
2018-03-29T06:47:47.207Z,99009.41
2018-03-29T06:50:49.188Z,99004.41
2018-03-29T06:53:51.192Z,99002.99
2018-03-29T06:56:52.484Z,99008.89
2018-03-29T06:59:53.734Z,99012.65
2018-03-29T07:02:54.987Z,99001.58
2018-03-29T07:05:56.256Z,99011.17
2018-03-29T07:08:57.577Z,99011.88
2018-03-29T07:11:59.577Z,99015.13
2018-03-29T07:15:01.596Z,99016.28
2018-03-29T07:18:04.106Z,99017.22
2018-03-29T07:21:06.114Z,99004.22
2018-03-29T07:24:07.373Z,99011.12
2018-03-29T07:27:08.592Z,99013.59
2018-03-29T07:30:09.841Z,99009.38
2018-03-29T07:33:11.101Z,99003.53
2018-03-29T07:36:12.346Z,99019.81
2018-03-29T07:39:14.310Z,99027.91
2018-03-29T07:42:16.351Z,99038.97
2018-03-29T07:45:17.591Z,99033.41
2018-03-29T07:48:20.386Z,99031.59
2018-03-29T07:51:23.086Z,99031.39
2018-03-29T07:54:24.789Z,99033.77
2018-03-29T07:57:26.678Z,99046.50
2018-03-29T08:00:29.244Z,99047.35
2018-03-29T08:03:30.613Z,99046.48
2018-03-29T08:06:31.856Z,99051.08
2018-03-29T08:09:33.066Z,99061.15
2018-03-29T08:12:34.284Z,99069.74
2018-03-29T08:15:35.511Z,99068.43
2018-03-29T08:18:37.502Z,99083.91
2018-03-29T08:21:39.483Z,99088.83
2018-03-29T08:24:41.443Z,99094.41
2018-03-29T08:27:42.650Z,99088.63
2018-03-29T08:30:43.886Z,99092.05
2018-03-29T08:33:45.855Z,99093.64
2018-03-29T08:36:47.113Z,99090.61
2018-03-29T08:39:48.362Z,99087.47
2018-03-29T08:42:49.635Z,99090.00
2018-03-29T08:45:50.815Z,99086.25
2018-03-29T08:48:52.784Z,99094.16
2018-03-29T08:51:54.033Z,99099.98
2018-03-29T08:54:55.276Z,99097.27
2018-03-29T08:57:56.490Z,99100.48
2018-03-29T09:00:58.447Z,99112.14
2018-03-29T09:03:59.705Z,99109.37
2018-03-29T09:07:00.928Z,99106.09
2018-03-29T09:10:02.208Z,99103.55
2018-03-29T09:13:03.458Z,99115.27
2018-03-29T09:16:04.696Z,99109.44
2018-03-29T09:19:05.912Z,99112.30
2018-03-29T09:22:07.158Z,99106.08
2018-03-29T09:25:08.429Z,99114.91
2018-03-29T09:28:09.643Z,99115.00
2018-03-29T09:31:10.860Z,99116.81
2018-03-29T09:34:12.094Z,99117.89
2018-03-29T09:37:13.340Z,99111.65
2018-03-29T09:40:14.584Z,99105.95
2018-03-29T09:43:16.564Z,99107.80
2018-03-29T09:46:17.821Z,99114.23
2018-03-29T09:49:19.812Z,99111.27
2018-03-29T09:52:21.055Z,99117.37
2018-03-29T09:55:22.302Z,99116.02
2018-03-29T09:58:23.545Z,99124.35
2018-03-29T10:01:24.825Z,99122.48
2018-03-29T10:04:26.142Z,99126.10
2018-03-29T10:07:33.222Z,99124.72
2018-03-29T10:10:35.248Z,99118.89
2018-03-29T10:13:36.461Z,99117.25
2018-03-29T10:16:38.491Z,99127.03
2018-03-29T10:19:39.708Z,99121.70
2018-03-29T10:22:41.671Z,99119.50
2018-03-29T10:25:42.907Z,99122.66
2018-03-29T10:28:44.150Z,99124.67
2018-03-29T10:31:45.382Z,99114.36
2018-03-29T10:34:46.634Z,99113.97
2018-03-29T10:37:48.640Z,99110.29
2018-03-29T10:40:49.862Z,99108.27
2018-03-29T10:43:51.130Z,99115.06
2018-03-29T10:46:52.366Z,99127.36
2018-03-29T10:49:53.622Z,99104.27
2018-03-29T10:52:54.858Z,99100.88
2018-03-29T10:55:56.077Z,99099.80
2018-03-29T10:58:57.298Z,99101.70
2018-03-29T11:01:58.534Z,99103.66
2018-03-29T11:04:59.755Z,99110.97
2018-03-29T11:08:00.991Z,99107.39
2018-03-29T11:11:02.213Z,99099.45
2018-03-29T11:14:04.186Z,99097.42
2018-03-29T11:17:06.175Z,99100.91
2018-03-29T11:20:07.426Z,99089.45
2018-03-29T11:23:09.380Z,99093.91
2018-03-29T11:26:10.633Z,99098.97
2018-03-29T11:29:11.894Z,99098.88
2018-03-29T11:32:13.170Z,99097.74
2018-03-29T11:35:14.433Z,99097.70
2018-03-29T11:38:15.682Z,99097.94
2018-03-29T11:41:16.996Z,99106.48
2018-03-29T11:44:18.323Z,99108.58
2018-03-29T11:47:19.595Z,99115.30
2018-03-29T11:50:20.849Z,99108.11
2018-03-29T11:53:22.103Z,99097.06
2018-03-29T11:56:23.354Z,99108.26
2018-03-29T11:59:24.575Z,99097.02
2018-03-29T12:02:26.574Z,99090.56
2018-03-29T12:05:27.837Z,99099.17
2018-03-29T12:08:29.083Z,99094.71
2018-03-29T12:11:30.362Z,99096.22
2018-03-29T12:14:31.621Z,99096.37
2018-03-29T12:17:32.846Z,99094.54
2018-03-29T12:20:34.097Z,99084.65
2018-03-29T12:23:35.328Z,99084.18
2018-03-29T12:26:36.570Z,99090.80
2018-03-29T12:29:37.795Z,99087.41
2018-03-29T12:32:39.000Z,99087.08
2018-03-29T12:35:40.215Z,99084.92
2018-03-29T12:38:41.462Z,99100.41
2018-03-29T12:41:43.439Z,99095.59
2018-03-29T12:44:44.660Z,99100.00
2018-03-29T12:47:45.921Z,99083.91
2018-03-29T12:50:47.134Z,99096.47
2018-03-29T12:53:48.357Z,99094.76
2018-03-29T12:57:08.302Z,99094.23
2018-03-29T13:00:09.560Z,99097.69
2018-03-29T13:03:10.769Z,99094.67
2018-03-29T13:06:12.024Z,99092.66
2018-03-29T13:09:13.285Z,99099.65
2018-03-29T13:12:14.541Z,99102.95
2018-03-29T13:15:16.503Z,99099.80
2018-03-29T13:18:17.758Z,99091.19
2018-03-29T13:21:19.010Z,99090.06
2018-03-29T13:24:20.271Z,99091.94
2018-03-29T13:27:21.533Z,99101.99
2018-03-29T13:30:22.800Z,99096.13
2018-03-29T13:33:24.066Z,99088.36
2018-03-29T13:36:25.335Z,99110.02
2018-03-29T13:39:26.619Z,99039.33
2018-03-29T13:42:28.445Z,99105.34
2018-03-29T13:45:29.668Z,99096.42
2018-03-29T13:48:32.682Z,99089.69
2018-03-29T13:51:34.410Z,99103.73
2018-03-29T13:54:36.378Z,99086.45
2018-03-29T13:57:38.132Z,99095.58
2018-03-29T14:00:39.765Z,99091.77
2018-03-29T14:03:41.510Z,99080.13
2018-03-29T14:06:42.913Z,99077.09
2018-03-29T14:09:44.757Z,99079.78
2018-03-29T14:12:46.175Z,99080.52
2018-03-29T14:15:48.396Z,99082.98
2018-03-29T14:18:49.634Z,99081.94
2018-03-29T14:21:51.862Z,99088.28
2018-03-29T14:24:53.110Z,99076.17
2018-03-29T14:27:54.825Z,99073.89
2018-03-29T14:30:56.900Z,99072.63
2018-03-29T14:33:59.143Z,99067.14
2018-03-29T14:37:07.719Z,99072.91
2018-03-29T14:40:09.560Z,99071.52
2018-03-29T14:43:12.287Z,99078.69
2018-03-29T14:46:14.212Z,99079.27
2018-03-29T14:49:15.658Z,99075.39
2018-03-29T14:52:18.155Z,99080.78
2018-03-29T14:55:19.458Z,99088.16
2018-03-29T14:58:21.198Z,99086.93
2018-03-29T15:01:22.441Z,99087.48
2018-03-29T15:04:24.792Z,99103.50
2018-03-29T15:07:26.170Z,99113.22
2018-03-29T15:10:28.879Z,99117.37
2018-03-29T15:13:30.205Z,99121.42
2018-03-29T15:16:32.440Z,99120.25
2018-03-29T15:19:33.772Z,99108.59
2018-03-29T15:22:35.002Z,99100.22
2018-03-29T15:25:37.653Z,99097.69
2018-03-29T15:28:39.398Z,99084.30
2018-03-29T15:31:40.872Z,99087.54
2018-03-29T15:34:42.563Z,99080.34
2018-03-29T15:37:43.802Z,99086.11
2018-03-29T15:40:45.603Z,99084.84
2018-03-29T15:43:46.804Z,99083.13
2018-03-29T15:46:48.380Z,99091.30
2018-03-29T15:49:50.163Z,99095.27
2018-03-29T15:52:51.864Z,99079.48
2018-03-29T15:55:54.553Z,99088.13
2018-03-29T15:58:55.814Z,99088.75
2018-03-29T16:01:57.649Z,99082.50
2018-03-29T16:04:59.666Z,99073.83
2018-03-29T16:08:08.047Z,99073.89
2018-03-29T16:11:09.914Z,99071.72
2018-03-29T16:14:12.055Z,99073.89
2018-03-29T16:17:13.621Z,99069.22
2018-03-29T16:20:14.940Z,99063.77
2018-03-29T16:23:16.184Z,99066.81
2018-03-29T16:26:17.673Z,99067.77
2018-03-29T16:29:18.947Z,99065.98
2018-03-29T16:32:21.463Z,99071.20
2018-03-29T16:35:24.026Z,99062.14
2018-03-29T16:38:26.247Z,99074.81
2018-03-29T16:41:28.734Z,99077.28
2018-03-29T16:44:30.475Z,99080.00
2018-03-29T16:47:31.883Z,99076.72
2018-03-29T16:50:34.102Z,99078.08
2018-03-29T16:53:35.562Z,99072.92
2018-03-29T16:56:37.289Z,99070.58
2018-03-29T16:59:38.836Z,99071.84
2018-03-29T17:02:40.724Z,99070.97
2018-03-29T17:05:44.542Z,99067.33
2018-03-29T17:08:47.416Z,99069.69
2018-03-29T17:11:49.640Z,99073.34
2018-03-29T17:14:50.931Z,99080.62
2018-03-29T17:17:52.625Z,99076.44
2018-03-29T17:20:53.960Z,99077.32
2018-03-29T17:23:55.671Z,99069.50
2018-03-29T17:26:56.958Z,99071.38
2018-03-29T17:29:58.191Z,99087.31
2018-03-29T17:32:59.434Z,99089.33
2018-03-29T17:36:01.341Z,99100.41
2018-03-29T17:39:02.631Z,99091.23
2018-03-29T17:42:03.916Z,99091.44
2018-03-29T17:45:05.914Z,99103.09
2018-03-29T17:48:08.421Z,99109.63
2018-03-29T17:51:09.793Z,99106.97
2018-03-29T17:54:11.204Z,99109.54
2018-03-29T17:57:12.642Z,99109.04
2018-03-29T18:00:14.747Z,99102.96
2018-03-29T18:03:18.366Z,99107.47
2018-03-29T18:06:20.899Z,99115.04
2018-03-29T18:09:22.699Z,99124.52
2018-03-29T18:12:25.729Z,99123.19
2018-03-29T18:15:27.420Z,99128.31
2018-03-29T18:18:28.718Z,99137.95
2018-03-29T18:21:31.836Z,99141.78
2018-03-29T18:24:33.873Z,99137.97
2018-03-29T18:27:35.177Z,99142.52
2018-03-29T18:30:36.978Z,99145.03
2018-03-29T18:33:38.723Z,99148.16
2018-03-29T18:36:40.426Z,99151.06
2018-03-29T18:39:41.794Z,99149.41
2018-03-29T18:42:43.155Z,99146.21
2018-03-29T18:45:44.546Z,99152.38
2018-03-29T18:48:45.853Z,99143.95
2018-03-29T18:51:47.774Z,99148.98
2018-03-29T18:54:49.318Z,99145.48
2018-03-29T18:57:50.634Z,99150.47
2018-03-29T19:00:52.885Z,99145.44
2018-03-29T19:03:54.433Z,99143.93
2018-03-29T19:06:55.890Z,99149.25
2018-03-29T19:09:58.661Z,99152.53
2018-03-29T19:13:01.698Z,99154.16
2018-03-29T19:16:03.281Z,99148.46
2018-03-29T19:19:04.639Z,99156.20
2018-03-29T19:22:06.094Z,99159.55
2018-03-29T19:25:07.449Z,99158.18
2018-03-29T19:28:08.840Z,99160.28
2018-03-29T19:31:10.196Z,99158.24
2018-03-29T19:34:11.455Z,99162.55
2018-03-29T19:37:13.446Z,99161.30
2018-03-29T19:40:15.129Z,99155.84
2018-03-29T19:43:16.599Z,99164.44
2018-03-29T19:46:20.292Z,99167.17
2018-03-29T19:49:22.715Z,99165.94
2018-03-29T19:52:26.092Z,99162.11
2018-03-29T19:55:30.568Z,99163.67
2018-03-29T19:58:32.005Z,99159.89
2018-03-29T20:01:33.975Z,99157.59
2018-03-29T20:04:35.780Z,99156.48
2018-03-29T20:07:37.314Z,99168.59
2018-03-29T20:10:39.275Z,99160.70
2018-03-29T20:13:41.007Z,99160.16
2018-03-29T20:16:42.931Z,99159.63
2018-03-29T20:19:46.055Z,99155.09
2018-03-29T20:22:47.446Z,99155.17
2018-03-29T20:25:49.145Z,99154.58
2018-03-29T20:28:50.568Z,99156.22
2018-03-29T20:31:52.118Z,99152.28
2018-03-29T20:34:53.447Z,99154.78
2018-03-29T20:37:54.850Z,99143.81
2018-03-29T20:40:56.299Z,99143.47
2018-03-29T20:43:59.138Z,99145.69
2018-03-29T20:47:00.939Z,99149.38
2018-03-29T20:50:02.988Z,99146.98
2018-03-29T20:53:04.363Z,99156.86
2018-03-29T20:56:06.172Z,99157.30
2018-03-29T20:59:07.802Z,99152.69
2018-03-29T21:02:09.125Z,99146.83
2018-03-29T21:05:10.649Z,99141.45
2018-03-29T21:08:12.097Z,99144.64
2018-03-29T21:11:13.672Z,99148.63
2018-03-29T21:14:15.625Z,99150.84
2018-03-29T21:17:16.934Z,99155.50
2018-03-29T21:20:18.286Z,99150.39
2018-03-29T21:23:20.507Z,99159.18
2018-03-29T21:26:23.902Z,99158.61
2018-03-29T21:29:25.428Z,99162.33
2018-03-29T21:32:26.957Z,99169.13
2018-03-29T21:35:28.239Z,99167.18
2018-03-29T21:38:30.150Z,99162.23
2018-03-29T21:41:32.724Z,99168.30
2018-03-29T21:44:34.996Z,99165.38
2018-03-29T21:47:36.725Z,99171.40
2018-03-29T21:50:38.797Z,99164.66
2018-03-29T21:53:40.108Z,99161.49
2018-03-29T21:56:41.361Z,99155.89
2018-03-29T22:05:05.456Z,99162.84
2018-03-29T22:08:06.710Z,99154.98
2018-03-29T22:11:07.993Z,99154.57
2018-03-29T22:14:09.601Z,99149.66
2018-03-29T22:17:10.900Z,99152.94
2018-03-29T22:20:12.137Z,99147.86
2018-03-29T22:23:13.346Z,99139.13
2018-03-29T22:26:14.576Z,99149.55
2018-03-29T22:29:15.846Z,99143.53
2018-03-29T22:32:17.068Z,99143.02
2018-03-29T22:35:19.076Z,99138.58
2018-03-29T22:38:20.422Z,99139.41
2018-03-29T22:41:21.724Z,99138.48
2018-03-29T22:44:22.985Z,99137.08
2018-03-29T22:47:24.227Z,99140.80
2018-03-29T22:50:25.494Z,99143.72
2018-03-29T22:53:26.737Z,99144.75
2018-03-29T22:56:28.727Z,99149.69
2018-03-29T22:59:29.935Z,99147.35
2018-03-29T23:02:31.193Z,99136.38
2018-03-29T23:05:32.439Z,99140.75
2018-03-29T23:08:33.702Z,99142.43
2018-03-29T23:11:34.943Z,99142.15
2018-03-29T23:14:36.193Z,99147.42
2018-03-29T23:17:38.206Z,99145.23
2018-03-29T23:20:39.462Z,99142.17
2018-03-29T23:23:40.684Z,99145.23
2018-03-29T23:26:41.945Z,99151.75
2018-03-29T23:29:43.196Z,99142.95
2018-03-29T23:32:44.408Z,99139.80
2018-03-29T23:35:45.650Z,99131.64
2018-03-29T23:38:47.796Z,99128.89
2018-03-29T23:41:49.029Z,99132.97
2018-03-29T23:44:50.286Z,99126.46
2018-03-29T23:47:51.560Z,99129.02
2018-03-29T23:50:52.830Z,99130.50
2018-03-29T23:53:54.843Z,99122.00
2018-03-29T23:56:56.106Z,99124.23
2018-03-29T23:59:57.438Z,99120.02
